sensor_id;sensor_type;location;lat;lon;timestamp;pressure;altitude;pressure_sealevel;temperature;humidity
54407;BME280;40313;50.308;30.374;2024-01-15T00:01:21;97903.56;;;8.78;nan
54407;BME280;40313;50.308;30.374;2024-01-15T00:03:47;97885.59;;;8.63;nan
54407;BME280;40313;50.308;30.374;2024-01-15T00:06:14;97913.47;;;8.84;nan
54407;BME280;40313;50.308;30.374;2024-01-15T00:08:40;97904.97;;;8.82;nan
54407;BME280;40313;50.308;30.374;2024-01-15T00:11:07;97926.22;;;8.53;nan
54407;BME280;40313;50.308;30.374;2024-01-15T00:13:35;97926.94;;;8.55;nan
54407;BME280;40313;50.308;30.374;2024-01-15T00:16:01;97913.06;;;8.43;nan
54407;BME280;40313;50.308;30.374;2024-01-15T00:18:28;97934.03;;;8.53;nan
54407;BME280;40313;50.308;30.374;2024-01-15T00:20:55;97938.19;;;8.78;nan
54407;BME280;40313;50.308;30.374;2024-01-15T00:23:22;97926.47;;;8.73;nan
54407;BME280;40313;50.308;30.374;2024-01-15T00:25:50;97932.47;;;8.51;nan
54407;BME280;40313;50.308;30.374;2024-01-15T00:28:17;97933.78;;;8.21;nan
54407;BME280;40313;50.308;30.374;2024-01-15T00:30:45;97921.13;;;8.05;nan
54407;BME280;40313;50.308;30.374;2024-01-15T00:33:12;97915.13;;;8.16;nan
54407;BME280;40313;50.308;30.374;2024-01-15T00:35:39;97928.25;;;8.61;nan
54407;BME280;40313;50.308;30.374;2024-01-15T00:38:06;97909.25;;;8.72;nan
54407;BME280;40313;50.308;30.374;2024-01-15T00:40:33;97932.28;;;8.76;nan
54407;BME280;40313;50.308;30.374;2024-01-15T00:43:00;97914.06;;;8.54;nan
54407;BME280;40313;50.308;30.374;2024-01-15T00:45:27;97919.84;;;8.10;nan
54407;BME280;40313;50.308;30.374;2024-01-15T00:47:55;97916.56;;;8.31;nan
54407;BME280;40313;50.308;30.374;2024-01-15T00:50:24;97922.38;;;8.35;nan
54407;BME280;40313;50.308;30.374;2024-01-15T00:52:51;97915.66;;;7.72;nan
54407;BME280;40313;50.308;30.374;2024-01-15T00:55:17;97923.69;;;8.40;nan
54407;BME280;40313;50.308;30.374;2024-01-15T00:57:44;97907.84;;;8.32;nan
54407;BME280;40313;50.308;30.374;2024-01-15T01:00:12;97903.44;;;8.68;nan
54407;BME280;40313;50.308;30.374;2024-01-15T01:02:38;97911.34;;;8.55;nan
54407;BME280;40313;50.308;30.374;2024-01-15T01:05:07;97911.47;;;8.76;nan
54407;BME280;40313;50.308;30.374;2024-01-15T01:07:33;97926.56;;;8.60;nan
54407;BME280;40313;50.308;30.374;2024-01-15T01:10:00;97907.91;;;8.55;nan
54407;BME280;40313;50.308;30.374;2024-01-15T01:12:26;97907.69;;;8.58;nan
54407;BME280;40313;50.308;30.374;2024-01-15T01:14:53;97902.25;;;8.61;nan
54407;BME280;40313;50.308;30.374;2024-01-15T01:17:19;97900.84;;;8.79;nan
54407;BME280;40313;50.308;30.374;2024-01-15T01:19:46;97905.78;;;8.82;nan
54407;BME280;40313;50.308;30.374;2024-01-15T01:22:14;97884.72;;;8.40;nan
54407;BME280;40313;50.308;30.374;2024-01-15T01:24:40;97908.81;;;8.42;nan
54407;BME280;40313;50.308;30.374;2024-01-15T01:27:07;97914.09;;;8.29;nan
54407;BME280;40313;50.308;30.374;2024-01-15T01:29:34;97905.88;;;8.47;nan
54407;BME280;40313;50.308;30.374;2024-01-15T01:32:01;97892.28;;;8.43;nan
54407;BME280;40313;50.308;30.374;2024-01-15T01:34:28;97896.63;;;8.43;nan
54407;BME280;40313;50.308;30.374;2024-01-15T01:36:55;97881.88;;;8.32;nan
54407;BME280;40313;50.308;30.374;2024-01-15T01:39:23;97903.91;;;8.62;nan
54407;BME280;40313;50.308;30.374;2024-01-15T01:41:49;97892.72;;;8.37;nan
54407;BME280;40313;50.308;30.374;2024-01-15T01:44:16;97902.03;;;8.28;nan
54407;BME280;40313;50.308;30.374;2024-01-15T01:46:43;97889.66;;;8.32;nan
54407;BME280;40313;50.308;30.374;2024-01-15T01:49:09;97875.53;;;8.01;nan
54407;BME280;40313;50.308;30.374;2024-01-15T01:51:37;97904.56;;;7.94;nan
54407;BME280;40313;50.308;30.374;2024-01-15T01:54:04;97894.81;;;8.09;nan
54407;BME280;40313;50.308;30.374;2024-01-15T01:56:35;97903.09;;;8.15;nan
54407;BME280;40313;50.308;30.374;2024-01-15T01:59:02;97893.50;;;8.04;nan
54407;BME280;40313;50.308;30.374;2024-01-15T02:01:30;97900.03;;;8.21;nan
54407;BME280;40313;50.308;30.374;2024-01-15T02:03:57;97886.97;;;7.98;nan
54407;BME280;40313;50.308;30.374;2024-01-15T02:06:24;97882.78;;;7.84;nan
54407;BME280;40313;50.308;30.374;2024-01-15T02:08:51;97903.59;;;7.95;nan
54407;BME280;40313;50.308;30.374;2024-01-15T02:11:18;97898.13;;;7.52;nan
54407;BME280;40313;50.308;30.374;2024-01-15T02:13:46;97904.34;;;6.62;nan
54407;BME280;40313;50.308;30.374;2024-01-15T02:16:12;97898.09;;;6.13;nan
54407;BME280;40313;50.308;30.374;2024-01-15T02:18:40;97900.47;;;5.76;nan
54407;BME280;40313;50.308;30.374;2024-01-15T02:21:07;97910.09;;;6.27;nan
54407;BME280;40313;50.308;30.374;2024-01-15T02:23:35;97889.09;;;6.19;nan
54407;BME280;40313;50.308;30.374;2024-01-15T02:26:02;97893.97;;;6.62;nan
54407;BME280;40313;50.308;30.374;2024-01-15T02:28:29;97877.91;;;6.44;nan
54407;BME280;40313;50.308;30.374;2024-01-15T02:30:55;97889.63;;;6.50;nan
54407;BME280;40313;50.308;30.374;2024-01-15T02:33:22;97902.16;;;6.30;nan
54407;BME280;40313;50.308;30.374;2024-01-15T02:35:48;97890.84;;;6.70;nan
54407;BME280;40313;50.308;30.374;2024-01-15T02:38:16;97892.28;;;6.74;nan
54407;BME280;40313;50.308;30.374;2024-01-15T02:40:45;97875.94;;;6.48;nan
54407;BME280;40313;50.308;30.374;2024-01-15T02:43:11;97888.56;;;6.65;nan
54407;BME280;40313;50.308;30.374;2024-01-15T02:45:39;97881.34;;;6.45;nan
54407;BME280;40313;50.308;30.374;2024-01-15T02:48:06;97878.31;;;6.25;nan
54407;BME280;40313;50.308;30.374;2024-01-15T02:50:32;97869.19;;;6.58;nan
54407;BME280;40313;50.308;30.374;2024-01-15T02:52:59;97908.34;;;6.92;nan
54407;BME280;40313;50.308;30.374;2024-01-15T02:55:25;97897.25;;;6.77;nan
54407;BME280;40313;50.308;30.374;2024-01-15T02:57:56;97896.00;;;6.83;nan
54407;BME280;40313;50.308;30.374;2024-01-15T03:00:22;97877.16;;;6.81;nan
54407;BME280;40313;50.308;30.374;2024-01-15T03:02:50;97855.31;;;6.72;nan
54407;BME280;40313;50.308;30.374;2024-01-15T03:05:17;97891.28;;;6.64;nan
54407;BME280;40313;50.308;30.374;2024-01-15T03:07:44;97868.03;;;6.75;nan
54407;BME280;40313;50.308;30.374;2024-01-15T03:10:10;97895.72;;;6.74;nan
54407;BME280;40313;50.308;30.374;2024-01-15T03:12:37;97892.28;;;6.87;nan
54407;BME280;40313;50.308;30.374;2024-01-15T03:15:05;97890.94;;;6.81;nan
54407;BME280;40313;50.308;30.374;2024-01-15T03:17:32;97882.78;;;6.62;nan
54407;BME280;40313;50.308;30.374;2024-01-15T03:19:59;97893.31;;;6.71;nan
54407;BME280;40313;50.308;30.374;2024-01-15T03:22:25;97872.50;;;6.60;nan
54407;BME280;40313;50.308;30.374;2024-01-15T03:24:52;97897.91;;;6.81;nan
54407;BME280;40313;50.308;30.374;2024-01-15T03:27:19;97874.06;;;6.50;nan
54407;BME280;40313;50.308;30.374;2024-01-15T03:29:45;97900.50;;;6.29;nan
54407;BME280;40313;50.308;30.374;2024-01-15T03:32:13;97884.03;;;6.17;nan
54407;BME280;40313;50.308;30.374;2024-01-15T03:34:41;97908.25;;;6.16;nan
54407;BME280;40313;50.308;30.374;2024-01-15T03:37:08;97907.09;;;6.08;nan
54407;BME280;40313;50.308;30.374;2024-01-15T03:39:34;97914.31;;;6.02;nan
54407;BME280;40313;50.308;30.374;2024-01-15T03:42:01;97883.75;;;5.95;nan
54407;BME280;40313;50.308;30.374;2024-01-15T03:44:27;97903.06;;;6.03;nan
54407;BME280;40313;50.308;30.374;2024-01-15T03:46:54;97906.19;;;5.94;nan
54407;BME280;40313;50.308;30.374;2024-01-15T03:49:22;97892.41;;;5.81;nan
54407;BME280;40313;50.308;30.374;2024-01-15T03:51:48;97886.59;;;5.50;nan
54407;BME280;40313;50.308;30.374;2024-01-15T03:54:15;97892.22;;;5.57;nan
54407;BME280;40313;50.308;30.374;2024-01-15T03:56:41;97908.34;;;5.47;nan
54407;BME280;40313;50.308;30.374;2024-01-15T03:59:08;97912.31;;;5.39;nan
54407;BME280;40313;50.308;30.374;2024-01-15T04:01:35;97891.22;;;5.32;nan
54407;BME280;40313;50.308;30.374;2024-01-15T04:04:01;97909.66;;;5.67;nan
54407;BME280;40313;50.308;30.374;2024-01-15T04:06:29;97907.84;;;5.55;nan
54407;BME280;40313;50.308;30.374;2024-01-15T04:08:55;97911.66;;;5.49;nan
54407;BME280;40313;50.308;30.374;2024-01-15T04:11:22;97909.94;;;5.35;nan
54407;BME280;40313;50.308;30.374;2024-01-15T04:13:49;97886.25;;;5.14;nan
54407;BME280;40313;50.308;30.374;2024-01-15T04:16:15;97881.00;;;5.16;nan
54407;BME280;40313;50.308;30.374;2024-01-15T04:18:42;97900.75;;;5.44;nan
54407;BME280;40313;50.308;30.374;2024-01-15T04:21:08;97918.13;;;5.42;nan
54407;BME280;40313;50.308;30.374;2024-01-15T04:23:36;97907.94;;;5.26;nan
54407;BME280;40313;50.308;30.374;2024-01-15T04:26:03;97900.09;;;5.28;nan
54407;BME280;40313;50.308;30.374;2024-01-15T04:28:29;97914.84;;;5.40;nan
54407;BME280;40313;50.308;30.374;2024-01-15T04:30:56;97918.75;;;5.46;nan
54407;BME280;40313;50.308;30.374;2024-01-15T04:33:22;97934.97;;;5.62;nan
54407;BME280;40313;50.308;30.374;2024-01-15T04:35:49;97918.53;;;5.36;nan
54407;BME280;40313;50.308;30.374;2024-01-15T04:38:15;97937.72;;;5.46;nan
54407;BME280;40313;50.308;30.374;2024-01-15T04:40:43;97922.75;;;5.37;nan
54407;BME280;40313;50.308;30.374;2024-01-15T04:43:10;97914.84;;;5.26;nan
54407;BME280;40313;50.308;30.374;2024-01-15T04:45:37;97919.34;;;5.36;nan
54407;BME280;40313;50.308;30.374;2024-01-15T04:48:04;97933.47;;;5.45;nan
54407;BME280;40313;50.308;30.374;2024-01-15T04:50:30;97940.75;;;5.53;nan
54407;BME280;40313;50.308;30.374;2024-01-15T04:52:57;97915.41;;;5.31;nan
54407;BME280;40313;50.308;30.374;2024-01-15T04:55:24;97938.19;;;5.39;nan
54407;BME280;40313;50.308;30.374;2024-01-15T04:57:51;97919.94;;;5.27;nan
54407;BME280;40313;50.308;30.374;2024-01-15T05:00:18;97935.78;;;5.35;nan
54407;BME280;40313;50.308;30.374;2024-01-15T05:02:45;97919.00;;;5.28;nan
54407;BME280;40313;50.308;30.374;2024-01-15T05:05:11;97932.31;;;5.22;nan
54407;BME280;40313;50.308;30.374;2024-01-15T05:07:38;97919.44;;;5.35;nan
54407;BME280;40313;50.308;30.374;2024-01-15T05:10:06;97932.84;;;5.42;nan
54407;BME280;40313;50.308;30.374;2024-01-15T05:12:33;97909.16;;;5.21;nan
54407;BME280;40313;50.308;30.374;2024-01-15T05:15:01;97916.38;;;5.01;nan
54407;BME280;40313;50.308;30.374;2024-01-15T05:17:28;97926.44;;;4.91;nan
54407;BME280;40313;50.308;30.374;2024-01-15T05:19:55;97902.44;;;5.04;nan
54407;BME280;40313;50.308;30.374;2024-01-15T05:22:21;97928.81;;;5.23;nan
54407;BME280;40313;50.308;30.374;2024-01-15T05:24:50;97925.06;;;5.42;nan
54407;BME280;40313;50.308;30.374;2024-01-15T05:27:16;97905.75;;;5.06;nan
54407;BME280;40313;50.308;30.374;2024-01-15T05:29:43;97918.03;;;5.02;nan
54407;BME280;40313;50.308;30.374;2024-01-15T05:32:11;97920.69;;;5.15;nan
54407;BME280;40313;50.308;30.374;2024-01-15T05:34:37;97924.16;;;5.28;nan
54407;BME280;40313;50.308;30.374;2024-01-15T05:37:04;97926.03;;;5.26;nan
54407;BME280;40313;50.308;30.374;2024-01-15T05:39:30;97912.75;;;5.18;nan
54407;BME280;40313;50.308;30.374;2024-01-15T05:41:58;97934.88;;;5.36;nan
54407;BME280;40313;50.308;30.374;2024-01-15T05:44:23;97931.38;;;5.38;nan
54407;BME280;40313;50.308;30.374;2024-01-15T05:46:50;97921.50;;;5.57;nan
54407;BME280;40313;50.308;30.374;2024-01-15T05:49:18;97937.03;;;5.57;nan
54407;BME280;40313;50.308;30.374;2024-01-15T05:51:44;97933.31;;;5.61;nan
54407;BME280;40313;50.308;30.374;2024-01-15T05:54:11;97935.66;;;5.51;nan
54407;BME280;40313;50.308;30.374;2024-01-15T05:56:38;97933.50;;;5.58;nan
54407;BME280;40313;50.308;30.374;2024-01-15T05:59:04;97928.38;;;5.71;nan
54407;BME280;40313;50.308;30.374;2024-01-15T06:01:31;97937.28;;;5.67;nan
54407;BME280;40313;50.308;30.374;2024-01-15T06:03:57;97953.75;;;5.51;nan
54407;BME280;40313;50.308;30.374;2024-01-15T06:06:25;97937.34;;;5.38;nan
54407;BME280;40313;50.308;30.374;2024-01-15T06:08:52;97922.09;;;5.48;nan
54407;BME280;40313;50.308;30.374;2024-01-15T06:11:18;97939.19;;;5.78;nan
54407;BME280;40313;50.308;30.374;2024-01-15T06:13:45;97945.13;;;5.65;nan
54407;BME280;40313;50.308;30.374;2024-01-15T06:16:13;97918.13;;;5.42;nan
54407;BME280;40313;50.308;30.374;2024-01-15T06:18:40;97923.06;;;5.60;nan
54407;BME280;40313;50.308;30.374;2024-01-15T06:21:07;97940.31;;;5.74;nan
54407;BME280;40313;50.308;30.374;2024-01-15T06:23:37;97937.31;;;5.80;nan
54407;BME280;40313;50.308;30.374;2024-01-15T06:26:04;97940.00;;;5.51;nan
54407;BME280;40313;50.308;30.374;2024-01-15T06:28:30;97950.84;;;5.70;nan
54407;BME280;40313;50.308;30.374;2024-01-15T06:30:57;97940.75;;;5.53;nan
54407;BME280;40313;50.308;30.374;2024-01-15T06:33:24;97949.47;;;5.92;nan
54407;BME280;40313;50.308;30.374;2024-01-15T06:35:50;97941.38;;;5.84;nan
54407;BME280;40313;50.308;30.374;2024-01-15T06:38:17;97940.16;;;5.89;nan
54407;BME280;40313;50.308;30.374;2024-01-15T06:40:45;97945.13;;;6.20;nan
54407;BME280;40313;50.308;30.374;2024-01-15T06:43:13;97959.13;;;6.30;nan
54407;BME280;40313;50.308;30.374;2024-01-15T06:45:40;97958.91;;;6.20;nan
54407;BME280;40313;50.308;30.374;2024-01-15T06:48:07;97944.53;;;6.29;nan
54407;BME280;40313;50.308;30.374;2024-01-15T06:51:01;97949.94;;;6.39;nan
54407;BME280;40313;50.308;30.374;2024-01-15T06:53:31;97955.50;;;6.46;nan
54407;BME280;40313;50.308;30.374;2024-01-15T06:55:58;97946.66;;;6.10;nan
54407;BME280;40313;50.308;30.374;2024-01-15T06:58:25;97938.69;;;6.13;nan
54407;BME280;40313;50.308;30.374;2024-01-15T07:00:56;97946.34;;;5.87;nan
54407;BME280;40313;50.308;30.374;2024-01-15T07:03:23;97916.06;;;8.15;nan
54407;BME280;40313;50.308;30.374;2024-01-15T07:05:50;97911.09;;;8.11;nan
54407;BME280;40313;50.308;30.374;2024-01-15T07:08:16;97925.22;;;8.43;nan
54407;BME280;40313;50.308;30.374;2024-01-15T07:10:43;97909.59;;;8.20;nan
54407;BME280;40313;50.308;30.374;2024-01-15T07:13:11;97917.84;;;8.61;nan
54407;BME280;40313;50.308;30.374;2024-01-15T07:15:37;97917.13;;;8.47;nan
54407;BME280;40313;50.308;30.374;2024-01-15T07:18:05;97906.50;;;8.62;nan
54407;BME280;40313;50.308;30.374;2024-01-15T07:20:31;97906.75;;;8.59;nan
54407;BME280;40313;50.308;30.374;2024-01-15T07:22:58;97889.75;;;8.66;nan
54407;BME280;40313;50.308;30.374;2024-01-15T07:25:24;97909.34;;;8.59;nan
54407;BME280;40313;50.308;30.374;2024-01-15T07:27:52;97897.53;;;8.55;nan
54407;BME280;40313;50.308;30.374;2024-01-15T07:30:20;97894.94;;;8.55;nan
54407;BME280;40313;50.308;30.374;2024-01-15T07:32:47;97880.16;;;8.55;nan
54407;BME280;40313;50.308;30.374;2024-01-15T07:35:14;97904.97;;;8.71;nan
54407;BME280;40313;50.308;30.374;2024-01-15T07:37:41;97896.34;;;8.81;nan
54407;BME280;40313;50.308;30.374;2024-01-15T07:40:08;97867.41;;;8.63;nan
54407;BME280;40313;50.308;30.374;2024-01-15T07:42:36;97886.41;;;8.87;nan
54407;BME280;40313;50.308;30.374;2024-01-15T07:45:04;97887.03;;;8.90;nan
54407;BME280;40313;50.308;30.374;2024-01-15T07:47:32;97874.84;;;8.91;nan
54407;BME280;40313;50.308;30.374;2024-01-15T07:49:59;97881.22;;;8.87;nan
54407;BME280;40313;50.308;30.374;2024-01-15T07:52:25;97893.53;;;8.96;nan
54407;BME280;40313;50.308;30.374;2024-01-15T07:54:52;97882.38;;;8.94;nan
54407;BME280;40313;50.308;30.374;2024-01-15T07:57:18;97889.38;;;8.59;nan
54407;BME280;40313;50.308;30.374;2024-01-15T07:59:45;97879.69;;;8.73;nan
54407;BME280;40313;50.308;30.374;2024-01-15T08:02:12;97879.91;;;8.92;nan
54407;BME280;40313;50.308;30.374;2024-01-15T08:04:39;97898.47;;;8.76;nan
54407;BME280;40313;50.308;30.374;2024-01-15T08:07:06;97891.25;;;8.80;nan
54407;BME280;40313;50.308;30.374;2024-01-15T08:09:33;97894.69;;;8.92;nan
54407;BME280;40313;50.308;30.374;2024-01-15T08:11:59;97879.78;;;9.16;nan
54407;BME280;40313;50.308;30.374;2024-01-15T08:14:26;97897.19;;;8.82;nan
54407;BME280;40313;50.308;30.374;2024-01-15T08:16:53;97904.84;;;9.18;nan
54407;BME280;40313;50.308;30.374;2024-01-15T08:19:19;97897.69;;;9.42;nan
54407;BME280;40313;50.308;30.374;2024-01-15T08:21:47;97899.34;;;9.43;nan
54407;BME280;40313;50.308;30.374;2024-01-15T08:24:14;97881.97;;;9.32;nan
54407;BME280;40313;50.308;30.374;2024-01-15T08:26:42;97880.28;;;9.43;nan
54407;BME280;40313;50.308;30.374;2024-01-15T08:29:08;97890.44;;;9.46;nan
54407;BME280;40313;50.308;30.374;2024-01-15T08:31:35;97897.16;;;9.16;nan
54407;BME280;40313;50.308;30.374;2024-01-15T08:34:01;97891.34;;;9.12;nan
54407;BME280;40313;50.308;30.374;2024-01-15T08:36:28;97880.94;;;9.12;nan
54407;BME280;40313;50.308;30.374;2024-01-15T08:38:57;97897.69;;;9.42;nan
54407;BME280;40313;50.308;30.374;2024-01-15T08:41:24;97885.78;;;9.17;nan
54407;BME280;40313;50.308;30.374;2024-01-15T08:43:50;97890.41;;;9.13;nan
54407;BME280;40313;50.308;30.374;2024-01-15T08:46:18;97888.75;;;9.24;nan
54407;BME280;40313;50.308;30.374;2024-01-15T08:48:44;97873.38;;;9.21;nan
54407;BME280;40313;50.308;30.374;2024-01-15T08:51:12;97886.00;;;9.25;nan
54407;BME280;40313;50.308;30.374;2024-01-15T08:53:38;97881.84;;;9.34;nan
54407;BME280;40313;50.308;30.374;2024-01-15T08:56:06;97873.47;;;9.30;nan
54407;BME280;40313;50.308;30.374;2024-01-15T08:58:34;97855.53;;;9.16;nan
54407;BME280;40313;50.308;30.374;2024-01-15T09:01:01;97878.78;;;9.40;nan
54407;BME280;40313;50.308;30.374;2024-01-15T09:03:27;97862.91;;;9.43;nan
54407;BME280;40313;50.308;30.374;2024-01-15T09:05:54;97870.13;;;9.40;nan
54407;BME280;40313;50.308;30.374;2024-01-15T09:08:21;97867.03;;;9.78;nan
54407;BME280;40313;50.308;30.374;2024-01-15T09:10:48;97876.63;;;9.78;nan
54407;BME280;40313;50.308;30.374;2024-01-15T09:13:15;97864.97;;;9.61;nan
54407;BME280;40313;50.308;30.374;2024-01-15T09:15:42;97856.41;;;9.70;nan
54407;BME280;40313;50.308;30.374;2024-01-15T09:18:09;97842.44;;;9.71;nan
54407;BME280;40313;50.308;30.374;2024-01-15T09:20:35;97843.97;;;9.74;nan
54407;BME280;40313;50.308;30.374;2024-01-15T09:23:04;97841.72;;;9.80;nan
54407;BME280;40313;50.308;30.374;2024-01-15T09:25:30;97833.25;;;9.88;nan
54407;BME280;40313;50.308;30.374;2024-01-15T09:27:57;97833.94;;;9.90;nan
54407;BME280;40313;50.308;30.374;2024-01-15T09:30:25;97839.75;;;9.94;nan
54407;BME280;40313;50.308;30.374;2024-01-15T09:32:51;97827.47;;;10.06;nan
54407;BME280;40313;50.308;30.374;2024-01-15T09:35:18;97820.41;;;10.17;nan
54407;BME280;40313;50.308;30.374;2024-01-15T09:37:45;97815.38;;;10.26;nan
54407;BME280;40313;50.308;30.374;2024-01-15T09:40:13;97806.69;;;10.15;nan
54407;BME280;40313;50.308;30.374;2024-01-15T09:42:40;97830.00;;;10.38;nan
54407;BME280;40313;50.308;30.374;2024-01-15T09:45:08;97822.75;;;10.42;nan
54407;BME280;40313;50.308;30.374;2024-01-15T09:47:36;97809.28;;;10.36;nan
54407;BME280;40313;50.308;30.374;2024-01-15T09:50:04;97816.31;;;10.46;nan
54407;BME280;40313;50.308;30.374;2024-01-15T09:52:30;97817.84;;;10.48;nan
54407;BME280;40313;50.308;30.374;2024-01-15T09:54:58;97813.03;;;10.23;nan
54407;BME280;40313;50.308;30.374;2024-01-15T09:57:28;97811.50;;;10.41;nan
54407;BME280;40313;50.308;30.374;2024-01-15T09:59:57;97814.75;;;10.33;nan
54407;BME280;40313;50.308;30.374;2024-01-15T10:02:25;97817.94;;;10.37;nan
54407;BME280;40313;50.308;30.374;2024-01-15T10:04:53;97823.00;;;10.38;nan
54407;BME280;40313;50.308;30.374;2024-01-15T10:07:21;97803.41;;;10.13;nan
54407;BME280;40313;50.308;30.374;2024-01-15T10:09:48;97819.19;;;10.21;nan
54407;BME280;40313;50.308;30.374;2024-01-15T10:12:14;97814.41;;;9.75;nan
54407;BME280;40313;50.308;30.374;2024-01-15T10:14:41;97794.25;;;9.98;nan
54407;BME280;40313;50.308;30.374;2024-01-15T10:17:12;97810.97;;;9.95;nan
54407;BME280;40313;50.308;30.374;2024-01-15T10:19:40;97799.72;;;9.95;nan
54407;BME280;40313;50.308;30.374;2024-01-15T10:22:08;97778.38;;;9.80;nan
54407;BME280;40313;50.308;30.374;2024-01-15T10:24:36;97788.34;;;9.54;nan
54407;BME280;40313;50.308;30.374;2024-01-15T10:27:06;97790.31;;;9.82;nan
54407;BME280;40313;50.308;30.374;2024-01-15T10:29:33;97768.41;;;9.85;nan
54407;BME280;40313;50.308;30.374;2024-01-15T10:32:00;97770.81;;;9.98;nan
54407;BME280;40313;50.308;30.374;2024-01-15T10:34:27;97763.13;;;9.75;nan
54407;BME280;40313;50.308;30.374;2024-01-15T10:36:54;97781.44;;;9.85;nan
54407;BME280;40313;50.308;30.374;2024-01-15T10:39:23;97785.56;;;9.66;nan
54407;BME280;40313;50.308;30.374;2024-01-15T10:41:49;97779.72;;;9.53;nan
54407;BME280;40313;50.308;30.374;2024-01-15T10:44:16;97769.00;;;9.67;nan
54407;BME280;40313;50.308;30.374;2024-01-15T10:46:44;97745.34;;;9.38;nan
54407;BME280;40313;50.308;30.374;2024-01-15T10:49:12;97748.25;;;9.24;nan
54407;BME280;40313;50.308;30.374;2024-01-15T10:51:39;97762.91;;;9.46;nan
54407;BME280;40313;50.308;30.374;2024-01-15T10:54:08;97737.81;;;9.56;nan
54407;BME280;40313;50.308;30.374;2024-01-15T10:56:39;97747.38;;;9.56;nan
54407;BME280;40313;50.308;30.374;2024-01-15T10:59:06;97736.69;;;9.16;nan
54407;BME280;40313;50.308;30.374;2024-01-15T11:01:36;97744.53;;;9.38;nan
54407;BME280;40313;50.308;30.374;2024-01-15T11:04:03;97738.72;;;9.34;nan
54407;BME280;40313;50.308;30.374;2024-01-15T11:06:42;97738.59;;;9.36;nan
54407;BME280;40313;50.308;30.374;2024-01-15T11:09:09;97741.13;;;9.26;nan
54407;BME280;40313;50.308;30.374;2024-01-15T11:11:39;97727.22;;;9.15;nan
54407;BME280;40313;50.308;30.374;2024-01-15T11:14:06;97722.56;;;9.30;nan
54407;BME280;40313;50.308;30.374;2024-01-15T11:16:54;97728.41;;;9.44;nan
54407;BME280;40313;50.308;30.374;2024-01-15T11:19:21;97711.19;;;9.10;nan
54407;BME280;40313;50.308;30.374;2024-01-15T11:21:48;97703.72;;;9.06;nan
54407;BME280;40313;50.308;30.374;2024-01-15T11:27:41;97727.88;;;9.29;nan
54407;BME280;40313;50.308;30.374;2024-01-15T11:30:09;97735.50;;;9.21;nan
54407;BME280;40313;50.308;30.374;2024-01-15T11:32:36;97742.97;;;9.14;nan
54407;BME280;40313;50.308;30.374;2024-01-15T11:35:06;97735.03;;;9.15;nan
54407;BME280;40313;50.308;30.374;2024-01-15T11:37:58;97739.31;;;9.05;nan
54407;BME280;40313;50.308;30.374;2024-01-15T11:40:37;97729.09;;;8.92;nan
54407;BME280;40313;50.308;30.374;2024-01-15T11:43:06;97717.03;;;8.91;nan
54407;BME280;40313;50.308;30.374;2024-01-15T11:45:34;97721.16;;;8.94;nan
54407;BME280;40313;50.308;30.374;2024-01-15T11:48:12;97714.25;;;9.04;nan
54407;BME280;40313;50.308;30.374;2024-01-15T11:50:41;97716.31;;;9.01;nan
54407;BME280;40313;50.308;30.374;2024-01-15T11:53:16;97719.41;;;9.15;nan
54407;BME280;40313;50.308;30.374;2024-01-15T11:55:44;97713.59;;;9.23;nan
54407;BME280;40313;50.308;30.374;2024-01-15T11:58:15;97713.06;;;9.08;nan
54407;BME280;40313;50.308;30.374;2024-01-15T12:00:45;97709.72;;;9.18;nan
54407;BME280;40313;50.308;30.374;2024-01-15T12:03:13;97709.66;;;9.08;nan
54407;BME280;40313;50.308;30.374;2024-01-15T12:05:40;97710.97;;;9.02;nan
54407;BME280;40313;50.308;30.374;2024-01-15T12:08:08;97703.91;;;8.93;nan
54407;BME280;40313;50.308;30.374;2024-01-15T12:10:37;97704.66;;;9.16;nan
54407;BME280;40313;50.308;30.374;2024-01-15T12:13:05;97713.47;;;9.25;nan
54407;BME280;40313;50.308;30.374;2024-01-15T12:15:37;97716.03;;;9.36;nan
54407;BME280;40313;50.308;30.374;2024-01-15T12:18:07;97717.53;;;9.60;nan
54407;BME280;40313;50.308;30.374;2024-01-15T12:20:34;97693.81;;;9.32;nan
54407;BME280;40313;50.308;30.374;2024-01-15T12:23:01;97699.63;;;9.24;nan
54407;BME280;40313;50.308;30.374;2024-01-15T12:25:29;97704.59;;;9.48;nan
54407;BME280;40313;50.308;30.374;2024-01-15T12:27:56;97706.19;;;9.61;nan
54407;BME280;40313;50.308;30.374;2024-01-15T12:30:23;97698.09;;;9.64;nan
54407;BME280;40313;50.308;30.374;2024-01-15T12:32:51;97696.34;;;9.43;nan
54407;BME280;40313;50.308;30.374;2024-01-15T12:35:17;97701.03;;;9.49;nan
54407;BME280;40313;50.308;30.374;2024-01-15T12:37:44;97695.63;;;9.62;nan
54407;BME280;40313;50.308;30.374;2024-01-15T12:40:12;97686.00;;;9.32;nan
54407;BME280;40313;50.308;30.374;2024-01-15T12:42:40;97699.94;;;9.10;nan
54407;BME280;40313;50.308;30.374;2024-01-15T12:45:08;97695.53;;;9.22;nan
54407;BME280;40313;50.308;30.374;2024-01-15T12:47:35;97697.41;;;9.20;nan
54407;BME280;40313;50.308;30.374;2024-01-15T12:50:06;97699.06;;;9.21;nan
54407;BME280;40313;50.308;30.374;2024-01-15T12:52:33;97697.06;;;9.13;nan
54407;BME280;40313;50.308;30.374;2024-01-15T12:54:59;97705.00;;;9.11;nan
54407;BME280;40313;50.308;30.374;2024-01-15T12:57:27;97685.53;;;9.06;nan
54407;BME280;40313;50.308;30.374;2024-01-15T12:59:54;97714.34;;;9.14;nan
54407;BME280;40313;50.308;30.374;2024-01-15T13:02:21;97707.31;;;9.05;nan
54407;BME280;40313;50.308;30.374;2024-01-15T13:04:48;97716.84;;;8.83;nan
54407;BME280;40313;50.308;30.374;2024-01-15T13:07:16;97715.19;;;8.82;nan
54407;BME280;40313;50.308;30.374;2024-01-15T13:09:42;97711.66;;;8.72;nan
54407;BME280;40313;50.308;30.374;2024-01-15T13:12:09;97689.84;;;8.40;nan
54407;BME280;40313;50.308;30.374;2024-01-15T13:14:36;97717.34;;;8.54;nan
54407;BME280;40313;50.308;30.374;2024-01-15T13:17:03;97703.09;;;8.26;nan
54407;BME280;40313;50.308;30.374;2024-01-15T13:19:32;97706.88;;;8.10;nan
54407;BME280;40313;50.308;30.374;2024-01-15T13:21:59;97706.41;;;8.17;nan
54407;BME280;40313;50.308;30.374;2024-01-15T13:24:27;97705.91;;;8.11;nan
54407;BME280;40313;50.308;30.374;2024-01-15T13:26:54;97696.84;;;7.94;nan